createdAt,value
2018-11-13T00:00:59.637Z,24.33
2018-11-13T00:03:27.993Z,24.87
2018-11-13T00:05:56.333Z,24.23
2018-11-13T00:08:24.708Z,24.67
2018-11-13T00:10:53.029Z,25.27
2018-11-13T00:13:21.373Z,25.37
2018-11-13T00:15:49.786Z,25.50
2018-11-13T00:18:18.125Z,24.00
2018-11-13T00:20:46.533Z,24.87
2018-11-13T00:23:14.941Z,25.57
2018-11-13T00:25:43.497Z,25.47
2018-11-13T00:28:11.845Z,25.10
2018-11-13T00:30:40.223Z,26.30
2018-11-13T00:33:08.575Z,24.67
2018-11-13T00:35:36.900Z,25.73
2018-11-13T00:38:05.768Z,26.47
2018-11-13T00:40:34.124Z,27.80
2018-11-13T00:43:02.453Z,27.57
2018-11-13T00:45:30.836Z,27.17
2018-11-13T00:47:59.184Z,25.63
2018-11-13T00:50:27.500Z,27.43
2018-11-13T00:52:55.821Z,27.60
2018-11-13T00:55:24.160Z,27.60
2018-11-13T00:57:52.484Z,27.10
2018-11-13T01:00:21.540Z,29.07
2018-11-13T01:02:50.149Z,29.60
2018-11-13T01:05:19.790Z,28.67
2018-11-13T01:07:49.485Z,28.10
2018-11-13T01:10:18.350Z,30.77
2018-11-13T01:12:47.252Z,30.10
2018-11-13T01:15:18.698Z,31.30
2018-11-13T01:17:47.709Z,31.77
2018-11-13T01:20:16.772Z,32.07
2018-11-13T01:22:45.239Z,33.83
2018-11-13T01:25:14.783Z,34.63
2018-11-13T01:27:43.772Z,33.17
2018-11-13T01:30:12.969Z,33.83
2018-11-13T01:32:42.046Z,34.73
2018-11-13T01:35:11.881Z,36.23
2018-11-13T01:37:40.301Z,36.23
2018-11-13T01:40:10.986Z,34.33
2018-11-13T01:42:39.641Z,34.87
2018-11-13T01:45:09.773Z,35.50
2018-11-13T01:47:38.082Z,34.53
2018-11-13T01:50:06.622Z,35.10
2018-11-13T01:52:35.432Z,34.90
2018-11-13T01:55:03.548Z,34.93
2018-11-13T01:57:31.857Z,34.33
2018-11-13T02:00:00.221Z,35.53
2018-11-13T02:02:28.627Z,35.23
2018-11-13T02:04:56.890Z,36.23
2018-11-13T02:07:25.219Z,36.77
2018-11-13T02:09:53.560Z,37.73
2018-11-13T02:12:21.919Z,39.07
2018-11-13T02:14:50.218Z,38.90
2018-11-13T02:17:18.649Z,38.47
2018-11-13T02:19:47.001Z,38.10
2018-11-13T02:22:15.342Z,39.73
2018-11-13T02:24:43.717Z,40.90
2018-11-13T02:27:12.046Z,42.57
2018-11-13T02:29:40.449Z,41.40
2018-11-13T02:32:08.803Z,40.70
2018-11-13T02:34:37.139Z,41.23
2018-11-13T02:37:05.564Z,39.60
2018-11-13T02:39:33.894Z,38.53
2018-11-13T02:42:02.331Z,37.23
2018-11-13T02:44:30.710Z,39.37
2018-11-13T02:46:59.080Z,42.17
2018-11-13T02:49:27.440Z,39.97
2018-11-13T02:51:55.801Z,41.23
2018-11-13T02:54:24.182Z,40.00
2018-11-13T02:56:52.567Z,44.50
2018-11-13T02:59:20.917Z,42.90
2018-11-13T03:01:49.317Z,42.10
2018-11-13T03:04:17.674Z,43.30
2018-11-13T03:06:46.054Z,43.37
2018-11-13T03:09:14.437Z,46.07
2018-11-13T03:11:42.769Z,45.37
2018-11-13T03:14:11.108Z,47.57
2018-11-13T03:16:39.468Z,44.10
2018-11-13T03:19:07.924Z,43.97
2018-11-13T03:21:36.300Z,47.23
2018-11-13T03:24:04.988Z,47.03
2018-11-13T03:26:33.346Z,47.53
2018-11-13T03:29:01.666Z,50.43
2018-11-13T03:31:30.131Z,46.80
2018-11-13T03:33:58.486Z,47.37
2018-11-13T03:36:26.820Z,47.13
2018-11-13T03:38:55.184Z,45.37
2018-11-13T03:41:23.593Z,43.60
2018-11-13T03:43:52.018Z,44.47
2018-11-13T03:46:20.362Z,45.83
2018-11-13T03:48:48.668Z,43.23
2018-11-13T03:51:17.004Z,47.03
2018-11-13T03:53:45.360Z,48.03
2018-11-13T03:56:13.661Z,44.27
2018-11-13T03:58:41.959Z,46.60
2018-11-13T04:01:10.274Z,46.53
2018-11-13T04:03:38.579Z,47.13
2018-11-13T04:06:06.893Z,44.87
2018-11-13T04:08:35.176Z,44.63
2018-11-13T04:11:03.487Z,45.23
2018-11-13T04:13:31.767Z,46.57
2018-11-13T04:16:00.025Z,44.97
2018-11-13T04:18:28.323Z,46.27
2018-11-13T04:20:56.620Z,45.23
2018-11-13T04:23:24.924Z,47.40
2018-11-13T04:25:53.288Z,46.73
2018-11-13T04:28:21.573Z,45.67
2018-11-13T04:30:50.071Z,42.80
2018-11-13T04:33:18.279Z,46.83
2018-11-13T04:35:46.583Z,45.80
2018-11-13T04:38:14.871Z,43.43
2018-11-13T04:40:43.122Z,46.20
2018-11-13T04:43:11.420Z,46.00
2018-11-13T04:45:39.735Z,47.17
2018-11-13T04:48:08.044Z,46.03
2018-11-13T04:50:36.323Z,46.17
2018-11-13T04:53:05.004Z,42.70
2018-11-13T04:55:33.318Z,46.77
2018-11-13T04:58:01.646Z,47.83
2018-11-13T05:00:29.963Z,49.83
2018-11-13T05:02:58.290Z,47.40
2018-11-13T05:05:26.531Z,43.70
2018-11-13T05:07:55.663Z,48.97
2018-11-13T05:10:24.868Z,48.57
2018-11-13T05:12:53.144Z,47.80
2018-11-13T05:15:21.476Z,43.83
2018-11-13T05:17:49.979Z,45.67
2018-11-13T05:20:18.525Z,44.47
2018-11-13T05:22:46.908Z,46.53
2018-11-13T05:25:16.567Z,43.00
2018-11-13T05:27:44.928Z,42.67
2018-11-13T05:30:14.759Z,42.47
2018-11-13T05:32:43.148Z,44.53
2018-11-13T05:35:14.498Z,42.63
2018-11-13T05:37:43.587Z,44.13
2018-11-13T05:40:17.094Z,45.63
2018-11-13T05:42:52.041Z,48.07
2018-11-13T05:45:22.556Z,47.80
2018-11-13T05:47:50.909Z,46.87
2018-11-13T05:50:19.808Z,49.37
2018-11-13T05:52:49.465Z,50.23
2018-11-13T05:55:18.003Z,47.23
2018-11-13T05:57:46.343Z,48.80
2018-11-13T06:00:19.727Z,47.73
2018-11-13T06:02:48.051Z,46.80
2018-11-13T06:05:16.389Z,45.97
2018-11-13T06:07:44.714Z,50.77
2018-11-13T06:10:13.561Z,48.33
2018-11-13T06:12:41.972Z,50.97
2018-11-13T06:15:10.411Z,48.40
2018-11-13T06:17:38.691Z,47.93
2018-11-13T06:20:08.812Z,48.70
2018-11-13T06:22:37.200Z,50.13
2018-11-13T06:25:06.680Z,49.03
2018-11-13T06:27:34.967Z,47.40
2018-11-13T06:30:03.287Z,49.77
2018-11-13T06:32:31.568Z,47.90
2018-11-13T06:34:59.843Z,47.63
2018-11-13T06:37:28.139Z,45.70
2018-11-13T06:39:56.459Z,44.13
2018-11-13T06:42:24.776Z,47.63
2018-11-13T06:44:53.087Z,47.67
2018-11-13T06:47:21.527Z,46.13
2018-11-13T06:49:50.083Z,47.47
2018-11-13T06:52:18.368Z,49.07
2018-11-13T06:55:02.579Z,47.60
2018-11-13T06:57:31.754Z,47.53
2018-11-13T07:00:00.550Z,46.53
2018-11-13T07:02:29.084Z,45.57
2018-11-13T07:04:57.559Z,47.27
2018-11-13T07:07:25.825Z,50.60
2018-11-13T07:09:54.095Z,45.50
2018-11-13T07:12:22.440Z,45.13
2018-11-13T07:14:50.751Z,47.93
2018-11-13T07:17:19.052Z,46.07
2018-11-13T07:19:47.352Z,44.37
2018-11-13T07:22:16.475Z,47.13
2018-11-13T07:24:44.829Z,45.40
2018-11-13T07:27:13.140Z,45.37
2018-11-13T07:29:41.562Z,44.60
2018-11-13T07:32:09.860Z,47.27
2018-11-13T07:34:38.151Z,43.97
2018-11-13T07:37:06.468Z,44.40
2018-11-13T07:39:34.804Z,44.80
2018-11-13T07:42:03.096Z,43.90
2018-11-13T07:44:31.432Z,44.33
2018-11-13T07:47:00.017Z,47.90
2018-11-13T07:49:28.366Z,44.93
2018-11-13T07:51:56.701Z,45.67
2018-11-13T07:54:25.083Z,46.87
2018-11-13T07:56:53.323Z,44.27
2018-11-13T07:59:21.580Z,44.20
2018-11-13T08:01:49.875Z,44.63
2018-11-13T08:04:18.201Z,45.87
2018-11-13T08:06:46.693Z,42.90
2018-11-13T08:09:14.994Z,40.37
2018-11-13T08:11:43.244Z,39.00
2018-11-13T08:14:11.544Z,37.87
2018-11-13T08:16:39.841Z,38.73
2018-11-13T08:19:08.164Z,35.83
2018-11-13T08:21:36.456Z,36.73
2018-11-13T08:24:04.819Z,34.97
2018-11-13T08:26:33.086Z,34.50
2018-11-13T08:29:01.503Z,36.50
2018-11-13T08:31:29.712Z,33.13
2018-11-13T08:33:57.960Z,33.47
2018-11-13T08:36:26.448Z,33.70
2018-11-13T08:38:54.758Z,33.00
2018-11-13T08:41:23.065Z,32.17
2018-11-13T08:43:51.422Z,33.97
2018-11-13T08:46:19.698Z,27.60
2018-11-13T08:48:48.019Z,29.53
2018-11-13T08:51:16.306Z,29.83
2018-11-13T08:53:44.609Z,26.53
2018-11-13T08:56:12.917Z,27.67
2018-11-13T08:58:41.199Z,27.80
2018-11-13T09:01:09.468Z,26.63
2018-11-13T09:03:37.850Z,28.30
2018-11-13T09:06:06.152Z,26.37
2018-11-13T09:08:34.552Z,28.00
2018-11-13T09:11:02.892Z,24.70
2018-11-13T09:13:31.321Z,22.13
2018-11-13T09:15:59.627Z,21.00
2018-11-13T09:18:27.942Z,20.03
2018-11-13T09:20:56.285Z,18.30
2018-11-13T09:23:24.599Z,17.83
2018-11-13T09:25:53.193Z,17.07
2018-11-13T09:28:21.523Z,16.27
2018-11-13T09:30:50.687Z,14.80
2018-11-13T09:33:18.705Z,14.40
2018-11-13T09:35:47.025Z,14.93
2018-11-13T09:38:15.316Z,13.47
2018-11-13T09:40:43.591Z,15.03
2018-11-13T09:43:11.948Z,16.10
2018-11-13T09:45:40.317Z,16.50
2018-11-13T09:48:08.680Z,17.43
2018-11-13T09:50:37.090Z,15.97
2018-11-13T09:53:05.740Z,15.97
2018-11-13T09:55:34.075Z,17.63
2018-11-13T09:58:02.382Z,19.30
2018-11-13T10:00:30.787Z,19.60
2018-11-13T10:03:00.689Z,19.40
2018-11-13T10:05:28.513Z,20.73
2018-11-13T10:07:56.983Z,20.33
2018-11-13T10:10:25.993Z,21.87
2018-11-13T10:12:54.391Z,21.33
2018-11-13T10:15:24.245Z,21.17
2018-11-13T10:17:52.594Z,21.33
2018-11-13T10:20:20.858Z,21.57
2018-11-13T10:22:50.628Z,22.60
2018-11-13T10:25:19.205Z,21.77
2018-11-13T10:27:47.571Z,21.97
2018-11-13T10:30:17.511Z,24.07
2018-11-13T10:32:46.188Z,23.43
2018-11-13T10:35:15.688Z,23.73
2018-11-13T10:37:43.981Z,24.80
2018-11-13T10:40:13.874Z,24.17
2018-11-13T10:42:42.381Z,24.70
2018-11-13T10:45:13.094Z,26.13
2018-11-13T10:47:41.704Z,24.77
2018-11-13T10:50:14.846Z,26.53
2018-11-13T10:52:43.103Z,24.97
2018-11-13T10:55:11.550Z,26.97
2018-11-13T10:57:40.625Z,28.07
2018-11-13T11:00:15.914Z,25.80
2018-11-13T11:02:49.693Z,25.93
2018-11-13T11:05:18.040Z,26.63
2018-11-13T11:07:46.438Z,27.77
2018-11-13T11:10:14.816Z,28.87
2018-11-13T11:12:43.321Z,30.37
2018-11-13T11:15:11.643Z,29.73
2018-11-13T11:17:39.965Z,28.40
2018-11-13T11:20:09.988Z,23.63
2018-11-13T11:22:38.297Z,22.40
2018-11-13T11:25:07.731Z,22.70
2018-11-13T11:27:35.972Z,25.70
2018-11-13T11:30:04.373Z,25.97
2018-11-13T11:32:32.684Z,22.70
2018-11-13T11:35:00.984Z,23.07
2018-11-13T11:37:29.279Z,21.10
2018-11-13T11:39:57.583Z,21.07
2018-11-13T11:42:25.937Z,20.53
2018-11-13T11:44:54.368Z,21.53
2018-11-13T11:47:22.657Z,20.07
2018-11-13T11:49:50.995Z,19.60
2018-11-13T11:52:19.292Z,21.40
2018-11-13T11:54:47.603Z,20.50
2018-11-13T11:57:16.155Z,19.27
2018-11-13T11:59:44.451Z,19.00
2018-11-13T12:02:12.827Z,19.67
2018-11-13T12:04:41.088Z,17.70
2018-11-13T12:07:09.400Z,20.23
2018-11-13T12:09:37.725Z,18.57
2018-11-13T12:12:06.376Z,18.50
2018-11-13T12:14:34.671Z,17.80
2018-11-13T12:17:03.244Z,19.83
2018-11-13T12:19:31.624Z,19.53
2018-11-13T12:22:00.031Z,19.70
2018-11-13T12:24:28.320Z,18.87
2018-11-13T12:26:56.688Z,15.77
2018-11-13T12:29:25.180Z,16.53
2018-11-13T12:31:53.548Z,15.93
2018-11-13T12:34:21.859Z,16.73
2018-11-13T12:36:50.124Z,16.77
2018-11-13T12:39:18.419Z,17.30
2018-11-13T12:41:46.703Z,16.13
2018-11-13T12:44:15.068Z,15.33
2018-11-13T12:46:43.355Z,14.10
2018-11-13T12:49:11.732Z,15.30
2018-11-13T12:51:45.364Z,15.20
2018-11-13T12:54:13.667Z,14.00
2018-11-13T12:56:41.956Z,14.83
2018-11-13T12:59:10.411Z,12.87
2018-11-13T13:01:38.775Z,14.83
2018-11-13T13:04:07.163Z,13.97
2018-11-13T13:06:35.449Z,16.07
2018-11-13T13:09:05.314Z,15.87
2018-11-13T13:11:33.747Z,14.37
2018-11-13T13:14:07.404Z,17.83
2018-11-13T13:16:35.720Z,15.33
2018-11-13T13:19:04.346Z,16.73
2018-11-13T13:21:32.512Z,17.57
2018-11-13T13:24:00.808Z,18.00
2018-11-13T13:26:29.140Z,20.87
2018-11-13T13:28:57.448Z,17.53
2018-11-13T13:31:25.951Z,20.67
2018-11-13T13:33:54.329Z,26.57
2018-11-13T13:36:22.635Z,21.87
2018-11-13T13:38:51.049Z,22.47
2018-11-13T13:41:19.236Z,23.10
2018-11-13T13:43:47.527Z,15.20
2018-11-13T13:46:15.857Z,14.83
2018-11-13T13:48:44.137Z,13.50
2018-11-13T13:51:12.440Z,12.50
2018-11-13T13:53:40.796Z,8.57
2018-11-13T13:56:09.077Z,6.30
2018-11-13T13:58:37.383Z,7.93
2018-11-13T14:01:05.818Z,7.93
2018-11-13T14:03:34.784Z,8.53
2018-11-13T14:06:02.438Z,6.83
2018-11-13T14:08:30.717Z,7.83
2018-11-13T14:10:58.959Z,9.67
2018-11-13T14:13:27.447Z,8.20
2018-11-13T14:15:55.730Z,10.47
2018-11-13T14:18:24.008Z,11.20
2018-11-13T14:20:52.331Z,14.10
2018-11-13T14:23:20.621Z,15.83
2018-11-13T14:25:48.925Z,15.07
2018-11-13T14:28:17.277Z,16.63
2018-11-13T14:30:45.532Z,16.50
2018-11-13T14:33:14.004Z,17.77
2018-11-13T14:35:42.495Z,18.17
2018-11-13T14:38:10.781Z,19.87
2018-11-13T14:40:42.443Z,19.30
2018-11-13T14:43:11.124Z,19.30
2018-11-13T14:45:39.400Z,20.43
2018-11-13T14:48:08.240Z,21.07
2018-11-13T14:50:36.788Z,21.77
2018-11-13T14:53:05.720Z,20.17
2018-11-13T14:55:35.367Z,20.33
2018-11-13T14:58:04.311Z,20.77
2018-11-13T15:00:33.704Z,21.97
2018-11-13T15:03:02.980Z,21.10
2018-11-13T15:05:32.079Z,23.73
2018-11-13T15:08:04.795Z,21.07
2018-11-13T15:10:40.498Z,20.80
2018-11-13T15:13:09.439Z,19.60
2018-11-13T15:15:37.791Z,21.23
2018-11-13T15:18:06.667Z,20.83
2018-11-13T15:20:34.973Z,21.17
2018-11-13T15:23:03.259Z,21.20
2018-11-13T15:25:31.583Z,21.53
2018-11-13T15:27:59.880Z,21.57
2018-11-13T15:30:29.820Z,20.17
2018-11-13T15:33:01.560Z,21.27
2018-11-13T15:35:29.835Z,20.53
2018-11-13T15:37:58.141Z,23.00
2018-11-13T15:40:27.800Z,19.73
2018-11-13T15:42:56.100Z,19.13
2018-11-13T15:45:24.404Z,19.97
2018-11-13T15:47:53.551Z,18.97
2018-11-13T15:50:23.276Z,23.43
2018-11-13T15:52:51.593Z,19.77
2018-11-13T15:55:19.876Z,19.10
2018-11-13T15:57:48.607Z,19.30
2018-11-13T16:00:23.396Z,17.70
2018-11-13T16:02:52.036Z,17.97
2018-11-13T16:05:26.675Z,16.30
2018-11-13T16:07:56.256Z,17.57
2018-11-13T16:10:24.736Z,17.53
2018-11-13T16:12:53.091Z,16.57
2018-11-13T16:15:22.413Z,16.93
2018-11-13T16:17:51.520Z,15.73
2018-11-13T16:20:20.247Z,14.87
2018-11-13T16:22:48.664Z,15.40
2018-11-13T16:25:16.988Z,14.73
2018-11-13T16:27:45.335Z,16.50
2018-11-13T16:30:15.085Z,13.83
2018-11-13T16:32:44.113Z,14.13
2018-11-13T16:35:13.551Z,13.67
2018-11-13T16:37:43.053Z,13.27
2018-11-13T16:40:14.912Z,12.67
2018-11-13T16:42:43.267Z,13.27
2018-11-13T16:45:13.568Z,12.87
2018-11-13T16:47:41.952Z,12.67
2018-11-13T16:50:26.956Z,13.63
2018-11-13T16:52:55.539Z,14.37
2018-11-13T16:55:29.224Z,14.20
2018-11-13T16:57:58.363Z,13.73
2018-11-13T17:00:26.747Z,13.83
2018-11-13T17:02:55.003Z,12.03
2018-11-13T17:05:23.970Z,15.27
2018-11-13T17:07:52.227Z,13.33
2018-11-13T17:10:23.715Z,15.77
2018-11-13T17:12:52.262Z,15.07
2018-11-13T17:15:22.651Z,15.33
2018-11-13T17:17:51.748Z,15.77
2018-11-13T17:20:20.090Z,15.53
2018-11-13T17:22:48.950Z,16.53
2018-11-13T17:25:18.698Z,14.63
2018-11-13T17:27:47.902Z,16.50
2018-11-13T17:30:19.512Z,14.40
2018-11-13T17:32:48.191Z,14.73
2018-11-13T17:35:17.842Z,12.63
2018-11-13T17:37:46.845Z,13.57
2018-11-13T17:40:17.990Z,12.47
2018-11-13T17:42:47.031Z,13.40
2018-11-13T17:45:21.483Z,12.63
2018-11-13T17:47:49.820Z,12.00
2018-11-13T17:50:21.542Z,11.83
2018-11-13T17:52:50.184Z,12.60
2018-11-13T17:55:19.011Z,11.53
2018-11-13T17:57:48.321Z,12.03
2018-11-13T18:00:21.108Z,11.20
2018-11-13T18:02:49.778Z,11.40
2018-11-13T18:05:19.293Z,10.33
2018-11-13T18:07:48.085Z,10.17
2018-11-13T18:10:16.425Z,9.90
2018-11-13T18:12:44.749Z,10.97
2018-11-13T18:15:14.525Z,9.80
2018-11-13T18:17:43.199Z,9.73
2018-11-13T18:20:14.114Z,9.00
2018-11-13T18:22:42.825Z,10.33
2018-11-13T18:25:11.247Z,9.67
2018-11-13T18:27:41.186Z,11.30
2018-11-13T18:30:14.448Z,10.63
2018-11-13T18:32:43.396Z,8.80
2018-11-13T18:35:13.736Z,9.00
2018-11-13T18:37:42.119Z,9.53
2018-11-13T18:40:12.469Z,9.37
2018-11-13T18:42:41.437Z,9.90
2018-11-13T18:45:12.722Z,7.27
2018-11-13T18:47:40.964Z,9.23
2018-11-13T18:50:13.169Z,8.10
2018-11-13T18:52:41.791Z,7.67
2018-11-13T18:55:10.904Z,6.87
2018-11-13T18:57:39.880Z,7.03
2018-11-13T19:00:12.665Z,5.80
2018-11-13T19:02:41.228Z,7.03
2018-11-13T19:05:10.212Z,5.60
2018-11-13T19:07:38.738Z,6.20
2018-11-13T19:10:12.366Z,4.93
2018-11-13T19:12:40.778Z,5.30
2018-11-13T19:15:10.611Z,4.83
2018-11-13T19:17:39.030Z,5.67
2018-11-13T19:20:09.921Z,5.40
2018-11-13T19:22:38.579Z,4.90
2018-11-13T19:25:07.763Z,5.10
2018-11-13T19:27:36.009Z,5.73
2018-11-13T19:30:04.499Z,4.90
2018-11-13T19:32:32.643Z,5.03
2018-11-13T19:35:01.011Z,4.13
2018-11-13T19:37:29.266Z,4.83
2018-11-13T19:39:57.569Z,4.77
2018-11-13T19:42:25.841Z,4.77
2018-11-13T19:44:54.273Z,4.90
2018-11-13T19:47:22.573Z,5.37
2018-11-13T19:49:51.057Z,6.40
2018-11-13T19:52:19.332Z,4.60
2018-11-13T19:54:47.601Z,4.93
2018-11-13T19:57:15.915Z,4.87
2018-11-13T19:59:44.189Z,4.93
2018-11-13T20:02:12.596Z,4.30
2018-11-13T20:04:40.975Z,4.73
2018-11-13T20:07:09.350Z,4.07
2018-11-13T20:09:37.645Z,4.90
2018-11-13T20:12:06.058Z,4.40
2018-11-13T20:14:34.372Z,4.23
2018-11-13T20:17:02.724Z,4.43
2018-11-13T20:19:31.343Z,4.60
2018-11-13T20:21:59.700Z,4.67
2018-11-13T20:24:28.257Z,4.50
2018-11-13T20:26:56.529Z,4.40
2018-11-13T20:29:25.055Z,4.87
2018-11-13T20:31:53.380Z,4.87
2018-11-13T20:34:21.736Z,4.43
2018-11-13T20:36:50.035Z,4.80
2018-11-13T20:39:18.359Z,5.10
2018-11-13T20:41:46.731Z,4.30
2018-11-13T20:44:15.027Z,5.07
2018-11-13T20:46:43.348Z,4.23
2018-11-13T20:49:11.663Z,4.17
2018-11-13T20:51:40.100Z,4.20
2018-11-13T20:54:08.336Z,4.73
2018-11-13T20:56:36.636Z,4.03
2018-11-13T20:59:05.204Z,4.97
2018-11-13T21:01:33.496Z,4.70
2018-11-13T21:04:01.775Z,4.30
2018-11-13T21:06:30.076Z,4.30
2018-11-13T21:08:58.407Z,5.77
2018-11-13T21:11:26.727Z,4.70
2018-11-13T21:13:55.044Z,5.10
2018-11-13T21:16:23.394Z,4.53
2018-11-13T21:18:51.614Z,4.07
2018-11-13T21:21:19.916Z,4.27
2018-11-13T21:23:48.383Z,3.73
2018-11-13T21:26:16.596Z,4.40
2018-11-13T21:28:44.912Z,4.10
2018-11-13T21:31:13.273Z,3.83
2018-11-13T21:33:41.780Z,4.93
2018-11-13T21:36:10.236Z,4.50
2018-11-13T21:38:38.609Z,3.57
2018-11-13T21:41:06.897Z,4.03
2018-11-13T21:43:35.311Z,4.20
2018-11-13T21:46:03.595Z,4.20
2018-11-13T21:48:31.924Z,4.40
2018-11-13T21:51:00.224Z,4.27
2018-11-13T21:53:28.512Z,4.47
2018-11-13T21:55:56.838Z,4.27
2018-11-13T21:58:25.114Z,4.60
2018-11-13T22:00:53.412Z,4.70
2018-11-13T22:03:21.741Z,4.83
2018-11-13T22:05:50.020Z,4.37
2018-11-13T22:08:18.359Z,5.10
2018-11-13T22:10:46.627Z,4.70
2018-11-13T22:13:14.924Z,4.43
2018-11-13T22:15:43.212Z,4.60
2018-11-13T22:18:11.496Z,4.83
2018-11-13T22:20:43.622Z,5.27
2018-11-13T22:23:08.113Z,4.70
2018-11-13T22:25:36.332Z,4.87
2018-11-13T22:28:04.796Z,5.20
2018-11-13T22:30:33.140Z,5.07
2018-11-13T22:33:01.416Z,6.07
2018-11-13T22:35:29.691Z,6.23
2018-11-13T22:37:58.001Z,5.67
2018-11-13T22:40:27.608Z,5.97
2018-11-13T22:42:56.064Z,5.90
2018-11-13T22:45:25.760Z,6.03
2018-11-13T22:47:54.460Z,6.17
2018-11-13T22:50:24.188Z,6.27
2018-11-13T22:52:52.983Z,6.73
2018-11-13T22:55:21.455Z,6.20
2018-11-13T22:57:52.285Z,6.27
2018-11-13T23:00:22.120Z,6.73
2018-11-13T23:02:51.742Z,6.20
2018-11-13T23:05:20.177Z,6.57
2018-11-13T23:07:48.552Z,6.60
2018-11-13T23:10:17.423Z,7.37
2018-11-13T23:12:46.100Z,7.13
2018-11-13T23:15:17.040Z,6.70
2018-11-13T23:17:45.554Z,7.47
2018-11-13T23:20:15.160Z,7.17
2018-11-13T23:22:43.487Z,7.77
2018-11-13T23:25:13.586Z,7.13
2018-11-13T23:27:42.460Z,7.60
2018-11-13T23:30:14.515Z,7.50
2018-11-13T23:32:42.924Z,7.77
2018-11-13T23:35:11.989Z,6.50
2018-11-13T23:37:40.688Z,7.33
2018-11-13T23:40:10.904Z,7.77
2018-11-13T23:42:39.599Z,8.13
2018-11-13T23:45:07.979Z,7.67
2018-11-13T23:47:37.160Z,7.33
2018-11-13T23:50:05.965Z,8.17
2018-11-13T23:52:34.240Z,6.33
2018-11-13T23:55:02.516Z,7.77
2018-11-13T23:57:30.801Z,6.27
2018-11-13T23:59:59.106Z,7.47
